Hao, French Polynesia
Current Conditions -  °F | °C
As of 5:30 AM on Thursday 23 Oct 2014 (Local Time) from NTAA Reporting Station
Overcast Overcast  
Wind Chill: 24°   Ceiling: 5200
Heat Index: 24°   Visibility: 6mi
Dew Point: 22°   Wind: 2mph
Humidity: 89%   Direction: NA
Pressure: 29.85"   Gusts: NA
Location:  18.25°S, 140.9°W
Report Text: NTAA 231430Z AUTO VRB02KT 9999 OVC052/// 24/22 Q1011
Loading
Personal Weather Stations






























Interactive Weather Map
Tropical Storm Tracking
New forecast layout! Learn more

10-Day Weather Forecast

Advertisements
Track Severe Weather on mobile